Leba, Poland

12:00 AM CEST on October 22, 2014 (GMT +0200)
Rebiechowo | Change Station
CLOSE
Current Station
Airport
Location: Gdansk Airport,
Elevation: 453 ft
Nearby Weather Stations

Elev 453 ft 54.38 °N, 18.47 °E | Updated 30 minutes ago

Mostly Cloudy
Mostly Cloudy
50 °F
Feels Like 50 °F
N
4
Wind Variable Wind from SSE

Today
High -- | Low -- °F
--% Chance of Precip.
Yesterday
High -- | Low -- °F
Precip. -- in
7:32 AM 5:35 PM
Waning Crescent, 4% visible
Pressure 29.56 in
Visibility 2.2 miles
Clouds Mostly Cloudy 300 ft
Dew Point 50 °F
Humidity 100%
Rainfall 0.00 in
Snow Depth Not available.
UV 0 out of 12
Pollen Not available.
Air Quality Not available.
Flu Activity Not available.
METAR EPGD 212130Z 16003KT 120V220 3500 BR BKN003 10/10 Q1001

More Conditions Fewer Conditions

Pressure 29.56 in
Visibility 2.2 miles
Clouds Mostly Cloudy 300 ft
Dew Point 50 °F
Humidity 100%
Rainfall 0.00 in
Snow Depth Not available.
UV 0 out of 12
Pollen Not available.
Air Quality Not available.
Flu Activity Not available.
METAR EPGD 212130Z 16003KT 120V220 3500 BR BKN003 10/10 Q1001

More Conditions Fewer Conditions

10-Day Weather Forecast

Almanac

Astronomy

Oct. 22, 2014 Rise Set
Actual Time 7:32 AM CEST 5:35 PM CEST
Civil Twilight 6:55 AM CEST 6:12 PM CEST
Nautical Twilight 6:13 AM CEST 6:54 PM CEST
Astronomical Twilight 5:31 AM CEST 7:35 PM CEST
Moon 5:42 AM CEST (10/22) 5:02 PM CEST (10/22)
Length of Visible Light 11h 17m
Length of Day
10h 03m
Tomorrow will be 4m 16s shorter.
Waning Crescent, 4% of the Moon is Illuminated
Oct 21
Waning Crescent
Oct 23
New
Oct 30
First Quarter
Nov 6
Full
Nov 14
Last Quarter

Yesterday's Extremes

Country Highs Country Lows

Community

WunderPhotos

Upload Photos

1,763,793 photos uploaded!

Nearby

Snow Depth

Not available.

Earthquake Activity

City Distance Mag. Time & Date
No recent earthquake activity has been reported nearby.
Minimum magnitude displayed is 2.5.

Coastal Water Temperatures

Place Temperature
No Stations Reporting

Nearby Weather Stations